Blythe, CA

5:12 PM PDT on August 27, 2014 (GMT -0700)
Blythe | Change Station
CLOSE
Current Station
Airport
Location: Blythe,
Elevation: 397 ft
Nearby Weather Stations

Elev 397 ft 33.62 °N, 114.72 °W | Updated 20 minutes ago

Clear
Clear
103 °F
Feels Like 103 °F
N
7
Wind Variable Wind from South

Today
High -- | Low -- °F
--% Chance of Precip.
Yesterday
High -- | Low -- °F
Precip. -- in
6:09 AM 7:10 PM
Waxing Crescent, 5% visible
Pressure 29.83 in
Visibility 10.0 miles
Clouds Clear
Dew Point 50 °F
Humidity 17%
Rainfall 0.00 in
Snow Depth Not available.
UV 3 out of 12
Pollen 7.10 out of 12
Ozone Good
Flu Activity Not available.
METAR KBLH 272352Z AUTO 17006KT 10SM CLR 39/10 A2985 RMK AO2 SLP101 T03940100 10400 20361 56022

More Conditions Fewer Conditions

Pressure 29.83 in
Visibility 10.0 miles
Clouds Clear
Dew Point 50 °F
Humidity 17%
Rainfall 0.00 in
Snow Depth Not available.
UV 3 out of 12
Pollen 7.10 out of 12
Ozone Good
Flu Activity Not available.
METAR KBLH 272352Z AUTO 17006KT 10SM CLR 39/10 A2985 RMK AO2 SLP101 T03940100 10400 20361 56022

More Conditions Fewer Conditions

10-Day Weather Forecast

Almanac

Astronomy

Aug. 27, 2014 Rise Set
Actual Time 6:09 AM PDT 7:10 PM PDT
Civil Twilight 5:43 AM PDT 7:35 PM PDT
Nautical Twilight 5:13 AM PDT 8:06 PM PDT
Astronomical Twilight 4:41 AM PDT 8:37 PM PDT
Moon 8:01 AM PDT (8/27) 8:13 PM PDT (8/27)
Length of Visible Light 13h 52m
Length of Day
13h 01m
Tomorrow will be 1m 57s shorter.
Waxing Crescent, 5% of the Moon is Illuminated
Today
Waxing Crescent
Sep 2
First Quarter
Sep 8
Full
Sep 15
Last Quarter
Sep 24
New

Today's Extremes

State Highs State Lows

Community

WunderPhotos

Upload Photos

1,747,830 photos uploaded!

Nearby

Air Quality

  Air Quality AQ Index Pollutant
Yesterday Moderate
OZONE
Yesterday Good
PM10
Current Good
OZONE
Thursday Good
OZONE
Thursday Good
PM10
Thursday Good
CO
Thursday Good
NO2

Snow Depth

Station Depth Elevation
Leavitt Meadows 0 in 7200 ft
Hagan's Meadow 0 in 8000 ft
Fallen Leaf 0 in 6300 ft
CSS Lab 1 in 6900 ft
Adin Mountain 0 in 6200 ft

Earthquake Activity

City Distance Mag. Time & Date
Progreso, Mexico 93 miles 2.6 10:55 PM PDT
2014-08-25
Maneadero, Mexico 145 miles 2.8 1:03 PM PDT
2014-08-25
Minimum magnitude displayed is 2.5.

Coastal Water Temperatures

Place Temperature
No Stations Reporting

Nearby Weather Stations